sensor_id;sensor_type;location;lat;lon;timestamp;P1;durP1;ratioP1;P2;durP2;ratioP2
7703;SDS011;3894;49.700;10.770;2022-09-09T00:07:40;2.55;;;1.55;;
7703;SDS011;3894;49.700;10.770;2022-09-09T00:10:18;4.75;;;1.70;;
7703;SDS011;3894;49.700;10.770;2022-09-09T00:18:29;5.15;;;1.98;;
7703;SDS011;3894;49.700;10.770;2022-09-09T00:24:23;3.75;;;1.70;;
7703;SDS011;3894;49.700;10.770;2022-09-09T00:26:53;3.20;;;2.20;;
7703;SDS011;3894;49.700;10.770;2022-09-09T00:32:20;4.10;;;2.30;;
7703;SDS011;3894;49.700;10.770;2022-09-09T00:34:48;4.97;;;2.40;;
7703;SDS011;3894;49.700;10.770;2022-09-09T00:37:20;4.40;;;2.08;;
7703;SDS011;3894;49.700;10.770;2022-09-09T00:39:50;5.32;;;2.50;;
7703;SDS011;3894;49.700;10.770;2022-09-09T00:56:08;5.28;;;2.25;;
7703;SDS011;3894;49.700;10.770;2022-09-09T00:58:38;4.07;;;2.20;;
7703;SDS011;3894;49.700;10.770;2022-09-09T01:01:07;3.45;;;2.03;;
7703;SDS011;3894;49.700;10.770;2022-09-09T01:06:27;4.63;;;2.38;;
7703;SDS011;3894;49.700;10.770;2022-09-09T01:14:42;4.57;;;2.60;;
7703;SDS011;3894;49.700;10.770;2022-09-09T01:20:04;3.83;;;2.00;;
7703;SDS011;3894;49.700;10.770;2022-09-09T01:22:47;2.42;;;1.63;;
7703;SDS011;3894;49.700;10.770;2022-09-09T01:28:48;5.47;;;3.20;;
7703;SDS011;3894;49.700;10.770;2022-09-09T01:31:19;3.67;;;2.42;;
7703;SDS011;3894;49.700;10.770;2022-09-09T01:33:48;5.93;;;1.80;;
7703;SDS011;3894;49.700;10.770;2022-09-09T01:39:11;3.65;;;1.70;;
7703;SDS011;3894;49.700;10.770;2022-09-09T01:41:38;3.80;;;1.80;;
7703;SDS011;3894;49.700;10.770;2022-09-09T01:44:13;2.20;;;1.80;;
7703;SDS011;3894;49.700;10.770;2022-09-09T01:46:45;4.22;;;1.98;;
7703;SDS011;3894;49.700;10.770;2022-09-09T01:49:10;5.20;;;2.20;;
7703;SDS011;3894;49.700;10.770;2022-09-09T01:51:36;5.57;;;2.33;;
7703;SDS011;3894;49.700;10.770;2022-09-09T01:54:05;6.47;;;2.70;;
7703;SDS011;3894;49.700;10.770;2022-09-09T01:59:10;8.15;;;2.60;;
7703;SDS011;3894;49.700;10.770;2022-09-09T02:02:10;4.18;;;2.47;;
7703;SDS011;3894;49.700;10.770;2022-09-09T02:04:47;4.30;;;2.45;;
7703;SDS011;3894;49.700;10.770;2022-09-09T02:10:19;5.47;;;2.35;;
7703;SDS011;3894;49.700;10.770;2022-09-09T02:13:23;5.20;;;2.38;;
7703;SDS011;3894;49.700;10.770;2022-09-09T02:16:52;5.15;;;2.47;;
7703;SDS011;3894;49.700;10.770;2022-09-09T02:19:23;6.05;;;2.50;;
7703;SDS011;3894;49.700;10.770;2022-09-09T02:22:14;3.88;;;2.30;;
7703;SDS011;3894;49.700;10.770;2022-09-09T02:24:44;3.15;;;2.40;;
7703;SDS011;3894;49.700;10.770;2022-09-09T02:27:19;8.43;;;2.70;;
7703;SDS011;3894;49.700;10.770;2022-09-09T02:29:46;3.60;;;1.95;;
7703;SDS011;3894;49.700;10.770;2022-09-09T02:32:17;3.75;;;2.15;;
7703;SDS011;3894;49.700;10.770;2022-09-09T02:34:48;4.20;;;2.25;;
7703;SDS011;3894;49.700;10.770;2022-09-09T02:37:46;5.05;;;2.10;;
7703;SDS011;3894;49.700;10.770;2022-09-09T02:40:17;4.88;;;2.22;;
7703;SDS011;3894;49.700;10.770;2022-09-09T02:42:44;4.78;;;2.40;;
7703;SDS011;3894;49.700;10.770;2022-09-09T02:45:12;4.07;;;2.22;;
7703;SDS011;3894;49.700;10.770;2022-09-09T02:50:16;4.65;;;2.30;;
7703;SDS011;3894;49.700;10.770;2022-09-09T02:55:20;4.88;;;2.55;;
7703;SDS011;3894;49.700;10.770;2022-09-09T02:57:53;7.80;;;2.35;;
7703;SDS011;3894;49.700;10.770;2022-09-09T03:00:22;6.22;;;2.53;;
7703;SDS011;3894;49.700;10.770;2022-09-09T03:02:49;4.97;;;2.70;;
7703;SDS011;3894;49.700;10.770;2022-09-09T03:05:16;6.00;;;2.55;;
7703;SDS011;3894;49.700;10.770;2022-09-09T03:07:42;4.22;;;2.47;;
7703;SDS011;3894;49.700;10.770;2022-09-09T03:10:08;6.15;;;2.80;;
7703;SDS011;3894;49.700;10.770;2022-09-09T03:12:33;5.18;;;2.33;;
7703;SDS011;3894;49.700;10.770;2022-09-09T03:14:59;7.00;;;2.60;;
7703;SDS011;3894;49.700;10.770;2022-09-09T03:17:25;4.20;;;2.20;;
7703;SDS011;3894;49.700;10.770;2022-09-09T03:19:58;4.32;;;2.47;;
7703;SDS011;3894;49.700;10.770;2022-09-09T03:22:24;4.28;;;2.50;;
7703;SDS011;3894;49.700;10.770;2022-09-09T03:24:50;4.22;;;2.40;;
7703;SDS011;3894;49.700;10.770;2022-09-09T03:27:17;5.88;;;2.30;;
7703;SDS011;3894;49.700;10.770;2022-09-09T03:32:19;3.67;;;2.00;;
7703;SDS011;3894;49.700;10.770;2022-09-09T03:34:47;7.22;;;2.85;;
7703;SDS011;3894;49.700;10.770;2022-09-09T03:37:15;4.13;;;2.35;;
7703;SDS011;3894;49.700;10.770;2022-09-09T03:39:42;5.40;;;2.50;;
7703;SDS011;3894;49.700;10.770;2022-09-09T03:42:08;6.53;;;2.45;;
7703;SDS011;3894;49.700;10.770;2022-09-09T03:44:42;4.32;;;2.30;;
7703;SDS011;3894;49.700;10.770;2022-09-09T03:47:08;5.50;;;2.63;;
7703;SDS011;3894;49.700;10.770;2022-09-09T03:49:33;4.03;;;2.78;;
7703;SDS011;3894;49.700;10.770;2022-09-09T03:51:59;4.90;;;2.50;;
7703;SDS011;3894;49.700;10.770;2022-09-09T03:54:26;5.00;;;2.53;;
7703;SDS011;3894;49.700;10.770;2022-09-09T03:59:23;4.55;;;2.80;;
7703;SDS011;3894;49.700;10.770;2022-09-09T04:01:52;6.20;;;2.97;;
7703;SDS011;3894;49.700;10.770;2022-09-09T04:04:18;6.03;;;2.88;;
7703;SDS011;3894;49.700;10.770;2022-09-09T04:06:45;7.18;;;3.20;;
7703;SDS011;3894;49.700;10.770;2022-09-09T04:09:11;5.10;;;2.75;;
7703;SDS011;3894;49.700;10.770;2022-09-09T04:11:36;6.07;;;2.90;;
7703;SDS011;3894;49.700;10.770;2022-09-09T04:14:02;4.97;;;2.65;;
7703;SDS011;3894;49.700;10.770;2022-09-09T04:16:31;4.30;;;2.40;;
7703;SDS011;3894;49.700;10.770;2022-09-09T04:19:07;6.28;;;3.13;;
7703;SDS011;3894;49.700;10.770;2022-09-09T04:21:32;4.90;;;2.47;;
7703;SDS011;3894;49.700;10.770;2022-09-09T04:24:05;5.63;;;2.80;;
7703;SDS011;3894;49.700;10.770;2022-09-09T04:26:32;5.57;;;2.95;;
7703;SDS011;3894;49.700;10.770;2022-09-09T04:28:58;5.38;;;2.80;;
7703;SDS011;3894;49.700;10.770;2022-09-09T04:31:24;5.07;;;2.35;;
7703;SDS011;3894;49.700;10.770;2022-09-09T04:33:50;5.13;;;2.78;;
7703;SDS011;3894;49.700;10.770;2022-09-09T04:36:17;5.28;;;2.60;;
7703;SDS011;3894;49.700;10.770;2022-09-09T04:38:44;6.28;;;2.38;;
7703;SDS011;3894;49.700;10.770;2022-09-09T04:41:10;5.47;;;2.80;;
7703;SDS011;3894;49.700;10.770;2022-09-09T04:43:37;7.20;;;3.33;;
7703;SDS011;3894;49.700;10.770;2022-09-09T04:46:04;5.38;;;2.45;;
7703;SDS011;3894;49.700;10.770;2022-09-09T04:48:30;4.07;;;2.30;;
7703;SDS011;3894;49.700;10.770;2022-09-09T04:53:23;4.72;;;2.90;;
7703;SDS011;3894;49.700;10.770;2022-09-09T04:55:50;7.28;;;3.75;;
7703;SDS011;3894;49.700;10.770;2022-09-09T04:58:16;7.93;;;4.00;;
7703;SDS011;3894;49.700;10.770;2022-09-09T05:00:43;6.10;;;3.38;;
7703;SDS011;3894;49.700;10.770;2022-09-09T05:03:08;6.32;;;3.40;;
7703;SDS011;3894;49.700;10.770;2022-09-09T05:05:34;6.15;;;2.95;;
7703;SDS011;3894;49.700;10.770;2022-09-09T05:08:01;7.07;;;3.53;;
7703;SDS011;3894;49.700;10.770;2022-09-09T05:10:28;5.40;;;3.60;;
7703;SDS011;3894;49.700;10.770;2022-09-09T05:12:56;5.28;;;3.08;;
7703;SDS011;3894;49.700;10.770;2022-09-09T05:15:22;7.13;;;3.50;;
7703;SDS011;3894;49.700;10.770;2022-09-09T05:17:48;5.18;;;2.90;;
7703;SDS011;3894;49.700;10.770;2022-09-09T05:20:20;5.80;;;3.17;;
7703;SDS011;3894;49.700;10.770;2022-09-09T05:22:46;5.00;;;3.22;;
7703;SDS011;3894;49.700;10.770;2022-09-09T05:25:11;7.00;;;2.90;;
7703;SDS011;3894;49.700;10.770;2022-09-09T05:27:37;5.50;;;2.80;;
7703;SDS011;3894;49.700;10.770;2022-09-09T05:30:08;5.05;;;2.80;;
7703;SDS011;3894;49.700;10.770;2022-09-09T05:32:34;4.70;;;2.88;;
7703;SDS011;3894;49.700;10.770;2022-09-09T05:35:01;4.82;;;2.78;;
7703;SDS011;3894;49.700;10.770;2022-09-09T05:37:26;5.35;;;2.55;;
7703;SDS011;3894;49.700;10.770;2022-09-09T05:39:55;6.05;;;2.70;;
7703;SDS011;3894;49.700;10.770;2022-09-09T05:42:21;5.10;;;2.67;;
7703;SDS011;3894;49.700;10.770;2022-09-09T05:44:47;4.57;;;2.70;;
7703;SDS011;3894;49.700;10.770;2022-09-09T05:47:12;5.25;;;2.67;;
7703;SDS011;3894;49.700;10.770;2022-09-09T05:49:45;6.85;;;3.13;;
7703;SDS011;3894;49.700;10.770;2022-09-09T05:52:11;7.53;;;2.88;;
7703;SDS011;3894;49.700;10.770;2022-09-09T05:54:37;4.50;;;2.65;;
7703;SDS011;3894;49.700;10.770;2022-09-09T05:57:03;4.82;;;2.80;;
7703;SDS011;3894;49.700;10.770;2022-09-09T05:59:34;3.85;;;2.65;;
7703;SDS011;3894;49.700;10.770;2022-09-09T06:01:59;4.93;;;2.88;;
7703;SDS011;3894;49.700;10.770;2022-09-09T06:04:25;4.95;;;2.42;;
7703;SDS011;3894;49.700;10.770;2022-09-09T06:06:51;5.32;;;3.03;;
7703;SDS011;3894;49.700;10.770;2022-09-09T06:09:16;4.38;;;2.50;;
7703;SDS011;3894;49.700;10.770;2022-09-09T06:11:42;4.97;;;2.63;;
7703;SDS011;3894;49.700;10.770;2022-09-09T06:14:08;6.63;;;2.70;;
7703;SDS011;3894;49.700;10.770;2022-09-09T06:16:37;7.53;;;3.15;;
7703;SDS011;3894;49.700;10.770;2022-09-09T06:19:03;4.15;;;2.60;;
7703;SDS011;3894;49.700;10.770;2022-09-09T06:21:30;6.80;;;2.60;;
7703;SDS011;3894;49.700;10.770;2022-09-09T06:23:57;5.70;;;3.00;;
7703;SDS011;3894;49.700;10.770;2022-09-09T06:26:24;6.13;;;2.90;;
7703;SDS011;3894;49.700;10.770;2022-09-09T06:29:00;6.05;;;2.78;;
7703;SDS011;3894;49.700;10.770;2022-09-09T06:31:28;6.28;;;2.90;;
7703;SDS011;3894;49.700;10.770;2022-09-09T06:33:58;7.47;;;3.10;;
7703;SDS011;3894;49.700;10.770;2022-09-09T06:36:25;4.45;;;2.60;;
7703;SDS011;3894;49.700;10.770;2022-09-09T06:38:53;3.30;;;2.30;;
7703;SDS011;3894;49.700;10.770;2022-09-09T06:41:20;4.05;;;2.38;;
7703;SDS011;3894;49.700;10.770;2022-09-09T06:43:47;4.07;;;2.30;;
7703;SDS011;3894;49.700;10.770;2022-09-09T06:48:40;5.72;;;2.50;;
7703;SDS011;3894;49.700;10.770;2022-09-09T06:51:08;6.07;;;2.33;;
7703;SDS011;3894;49.700;10.770;2022-09-09T06:53:38;4.63;;;2.60;;
7703;SDS011;3894;49.700;10.770;2022-09-09T06:58:44;7.00;;;2.83;;
7703;SDS011;3894;49.700;10.770;2022-09-09T07:01:20;5.57;;;2.80;;
7703;SDS011;3894;49.700;10.770;2022-09-09T07:03:48;7.13;;;2.40;;
7703;SDS011;3894;49.700;10.770;2022-09-09T07:06:26;4.82;;;2.53;;
7703;SDS011;3894;49.700;10.770;2022-09-09T07:09:11;5.32;;;2.13;;
7703;SDS011;3894;49.700;10.770;2022-09-09T07:11:43;8.73;;;2.67;;
7703;SDS011;3894;49.700;10.770;2022-09-09T07:14:15;5.32;;;2.30;;
7703;SDS011;3894;49.700;10.770;2022-09-09T07:16:42;6.15;;;2.50;;
7703;SDS011;3894;49.700;10.770;2022-09-09T07:19:09;4.63;;;2.20;;
7703;SDS011;3894;49.700;10.770;2022-09-09T07:21:35;4.68;;;2.05;;
7703;SDS011;3894;49.700;10.770;2022-09-09T07:24:01;4.03;;;2.30;;
7703;SDS011;3894;49.700;10.770;2022-09-09T07:26:28;3.72;;;2.10;;
7703;SDS011;3894;49.700;10.770;2022-09-09T07:28:55;4.65;;;2.20;;
7703;SDS011;3894;49.700;10.770;2022-09-09T07:31:25;2.92;;;1.98;;
7703;SDS011;3894;49.700;10.770;2022-09-09T07:33:53;4.43;;;2.58;;
7703;SDS011;3894;49.700;10.770;2022-09-09T07:36:20;3.63;;;2.03;;
7703;SDS011;3894;49.700;10.770;2022-09-09T07:38:54;4.57;;;2.17;;
7703;SDS011;3894;49.700;10.770;2022-09-09T07:41:35;5.65;;;2.00;;
7703;SDS011;3894;49.700;10.770;2022-09-09T07:44:06;3.67;;;1.90;;
7703;SDS011;3894;49.700;10.770;2022-09-09T07:46:37;5.13;;;2.28;;
7703;SDS011;3894;49.700;10.770;2022-09-09T07:49:06;7.18;;;2.70;;
7703;SDS011;3894;49.700;10.770;2022-09-09T07:51:34;7.80;;;3.00;;
7703;SDS011;3894;49.700;10.770;2022-09-09T07:54:14;9.43;;;2.85;;
7703;SDS011;3894;49.700;10.770;2022-09-09T07:56:44;5.57;;;2.50;;
7703;SDS011;3894;49.700;10.770;2022-09-09T07:59:10;3.72;;;2.10;;
7703;SDS011;3894;49.700;10.770;2022-09-09T08:01:37;5.57;;;2.33;;
7703;SDS011;3894;49.700;10.770;2022-09-09T08:04:09;3.65;;;1.90;;
7703;SDS011;3894;49.700;10.770;2022-09-09T08:06:43;6.18;;;1.67;;
7703;SDS011;3894;49.700;10.770;2022-09-09T08:09:11;4.05;;;1.60;;
7703;SDS011;3894;49.700;10.770;2022-09-09T08:11:37;4.78;;;1.60;;
7703;SDS011;3894;49.700;10.770;2022-09-09T08:14:03;4.57;;;1.77;;
7703;SDS011;3894;49.700;10.770;2022-09-09T08:16:30;3.78;;;1.50;;
7703;SDS011;3894;49.700;10.770;2022-09-09T08:18:58;3.90;;;1.90;;
7703;SDS011;3894;49.700;10.770;2022-09-09T08:21:29;5.40;;;1.50;;
7703;SDS011;3894;49.700;10.770;2022-09-09T08:24:02;4.07;;;2.10;;
7703;SDS011;3894;49.700;10.770;2022-09-09T08:26:34;3.47;;;1.40;;
7703;SDS011;3894;49.700;10.770;2022-09-09T08:29:01;4.65;;;1.10;;
7703;SDS011;3894;49.700;10.770;2022-09-09T08:32:11;2.70;;;1.10;;
7703;SDS011;3894;49.700;10.770;2022-09-09T08:34:25;1.08;;;0.70;;
7703;SDS011;3894;49.700;10.770;2022-09-09T08:36:52;1.42;;;0.60;;
7703;SDS011;3894;49.700;10.770;2022-09-09T08:39:19;1.50;;;0.63;;
7703;SDS011;3894;49.700;10.770;2022-09-09T08:58:12;2.63;;;0.82;;
7703;SDS011;3894;49.700;10.770;2022-09-09T09:01:29;3.95;;;1.25;;
7703;SDS011;3894;49.700;10.770;2022-09-09T09:04:00;1.77;;;0.80;;
7703;SDS011;3894;49.700;10.770;2022-09-09T09:06:44;3.75;;;0.73;;
7703;SDS011;3894;49.700;10.770;2022-09-09T09:09:27;4.57;;;0.98;;
7703;SDS011;3894;49.700;10.770;2022-09-09T09:12:19;4.55;;;1.10;;
7703;SDS011;3894;49.700;10.770;2022-09-09T09:14:48;2.50;;;0.88;;
7703;SDS011;3894;49.700;10.770;2022-09-09T09:17:18;3.78;;;1.00;;
7703;SDS011;3894;49.700;10.770;2022-09-09T09:19:50;2.40;;;0.82;;
7703;SDS011;3894;49.700;10.770;2022-09-09T09:22:17;2.92;;;0.80;;
7703;SDS011;3894;49.700;10.770;2022-09-09T09:30:01;2.60;;;0.80;;
7703;SDS011;3894;49.700;10.770;2022-09-09T09:32:43;1.83;;;0.70;;
7703;SDS011;3894;49.700;10.770;2022-09-09T09:35:16;4.95;;;1.25;;
7703;SDS011;3894;49.700;10.770;2022-09-09T09:37:44;3.20;;;0.80;;
7703;SDS011;3894;49.700;10.770;2022-09-09T09:40:21;5.13;;;0.90;;
7703;SDS011;3894;49.700;10.770;2022-09-09T09:42:55;4.13;;;0.70;;
7703;SDS011;3894;49.700;10.770;2022-09-09T09:45:32;4.88;;;1.00;;
7703;SDS011;3894;49.700;10.770;2022-09-09T09:48:12;5.15;;;1.17;;
7703;SDS011;3894;49.700;10.770;2022-09-09T09:50:54;10.43;;;5.70;;
7703;SDS011;3894;49.700;10.770;2022-09-09T09:53:41;19.95;;;11.52;;
7703;SDS011;3894;49.700;10.770;2022-09-09T09:56:12;4.20;;;1.35;;
7703;SDS011;3894;49.700;10.770;2022-09-09T09:58:52;0.93;;;0.60;;
7703;SDS011;3894;49.700;10.770;2022-09-09T10:01:29;5.07;;;0.90;;
7703;SDS011;3894;49.700;10.770;2022-09-09T10:04:02;2.78;;;0.77;;
7703;SDS011;3894;49.700;10.770;2022-09-09T10:06:41;2.05;;;0.70;;
7703;SDS011;3894;49.700;10.770;2022-09-09T10:09:26;2.55;;;0.80;;
7703;SDS011;3894;49.700;10.770;2022-09-09T10:20:01;3.85;;;0.88;;
7703;SDS011;3894;49.700;10.770;2022-09-09T10:22:43;1.55;;;0.60;;
7703;SDS011;3894;49.700;10.770;2022-09-09T10:25:33;2.05;;;0.60;;
7703;SDS011;3894;49.700;10.770;2022-09-09T10:36:57;1.70;;;0.57;;
7703;SDS011;3894;49.700;10.770;2022-09-09T10:57:48;2.47;;;0.70;;
7703;SDS011;3894;49.700;10.770;2022-09-09T11:00:23;4.95;;;0.70;;
7703;SDS011;3894;49.700;10.770;2022-09-09T11:03:01;3.05;;;0.80;;
7703;SDS011;3894;49.700;10.770;2022-09-09T11:05:49;4.45;;;0.68;;
7703;SDS011;3894;49.700;10.770;2022-09-09T11:08:25;4.55;;;0.80;;
7703;SDS011;3894;49.700;10.770;2022-09-09T11:16:15;3.60;;;0.73;;
7703;SDS011;3894;49.700;10.770;2022-09-09T11:18:56;3.42;;;0.75;;
7703;SDS011;3894;49.700;10.770;2022-09-09T11:21:31;1.55;;;0.70;;
7703;SDS011;3894;49.700;10.770;2022-09-09T11:24:05;3.28;;;1.00;;
7703;SDS011;3894;49.700;10.770;2022-09-09T11:26:41;2.55;;;0.60;;
7703;SDS011;3894;49.700;10.770;2022-09-09T11:40:44;3.45;;;0.65;;
7703;SDS011;3894;49.700;10.770;2022-09-09T11:43:24;3.10;;;0.68;;
7703;SDS011;3894;49.700;10.770;2022-09-09T11:45:55;4.05;;;0.77;;
7703;SDS011;3894;49.700;10.770;2022-09-09T11:48:32;3.97;;;0.93;;
7703;SDS011;3894;49.700;10.770;2022-09-09T11:51:09;2.80;;;0.52;;
7703;SDS011;3894;49.700;10.770;2022-09-09T12:02:01;1.67;;;0.50;;
7703;SDS011;3894;49.700;10.770;2022-09-09T12:04:40;3.50;;;0.70;;
7703;SDS011;3894;49.700;10.770;2022-09-09T12:09:49;5.47;;;0.95;;
7703;SDS011;3894;49.700;10.770;2022-09-09T12:14:57;3.03;;;0.60;;
7703;SDS011;3894;49.700;10.770;2022-09-09T12:17:37;2.50;;;0.40;;
7703;SDS011;3894;49.700;10.770;2022-09-09T12:30:39;2.20;;;0.80;;
7703;SDS011;3894;49.700;10.770;2022-09-09T12:33:23;2.53;;;0.60;;
7703;SDS011;3894;49.700;10.770;2022-09-09T12:35:58;3.30;;;0.70;;
7703;SDS011;3894;49.700;10.770;2022-09-09T12:38:32;2.30;;;0.68;;
7703;SDS011;3894;49.700;10.770;2022-09-09T12:41:00;3.53;;;0.63;;
7703;SDS011;3894;49.700;10.770;2022-09-09T12:43:26;3.67;;;1.00;;
7703;SDS011;3894;49.700;10.770;2022-09-09T12:46:00;6.45;;;0.70;;
7703;SDS011;3894;49.700;10.770;2022-09-09T12:48:31;5.18;;;1.00;;
7703;SDS011;3894;49.700;10.770;2022-09-09T12:51:01;1.45;;;0.70;;
7703;SDS011;3894;49.700;10.770;2022-09-09T12:53:34;3.15;;;0.80;;
7703;SDS011;3894;49.700;10.770;2022-09-09T12:56:03;3.95;;;0.80;;
7703;SDS011;3894;49.700;10.770;2022-09-09T12:58:32;2.95;;;0.57;;
7703;SDS011;3894;49.700;10.770;2022-09-09T13:00:59;3.15;;;0.65;;
7703;SDS011;3894;49.700;10.770;2022-09-09T13:03:42;3.33;;;0.90;;
7703;SDS011;3894;49.700;10.770;2022-09-09T13:06:13;3.38;;;0.70;;
7703;SDS011;3894;49.700;10.770;2022-09-09T13:09:09;1.50;;;0.60;;
7703;SDS011;3894;49.700;10.770;2022-09-09T13:11:39;2.83;;;0.60;;
7703;SDS011;3894;49.700;10.770;2022-09-09T13:17:15;1.98;;;0.50;;
7703;SDS011;3894;49.700;10.770;2022-09-09T13:19:47;2.25;;;0.60;;
7703;SDS011;3894;49.700;10.770;2022-09-09T13:27:40;2.28;;;0.80;;
7703;SDS011;3894;49.700;10.770;2022-09-09T13:30:23;1.90;;;0.70;;
7703;SDS011;3894;49.700;10.770;2022-09-09T13:35:29;3.78;;;1.10;;
7703;SDS011;3894;49.700;10.770;2022-09-09T13:37:58;2.15;;;0.70;;
7703;SDS011;3894;49.700;10.770;2022-09-09T13:40:32;0.77;;;0.50;;
7703;SDS011;3894;49.700;10.770;2022-09-09T13:42:59;3.63;;;1.10;;
7703;SDS011;3894;49.700;10.770;2022-09-09T13:45:25;2.25;;;0.60;;
7703;SDS011;3894;49.700;10.770;2022-09-09T13:48:00;3.30;;;0.70;;
7703;SDS011;3894;49.700;10.770;2022-09-09T13:50:34;1.95;;;0.80;;
7703;SDS011;3894;49.700;10.770;2022-09-09T13:53:00;3.47;;;0.70;;
7703;SDS011;3894;49.700;10.770;2022-09-09T13:55:34;2.05;;;0.60;;
7703;SDS011;3894;49.700;10.770;2022-09-09T13:58:14;2.42;;;0.70;;
7703;SDS011;3894;49.700;10.770;2022-09-09T14:00:41;5.13;;;1.63;;
7703;SDS011;3894;49.700;10.770;2022-09-09T14:03:09;3.03;;;0.75;;
7703;SDS011;3894;49.700;10.770;2022-09-09T14:05:35;3.72;;;0.60;;
7703;SDS011;3894;49.700;10.770;2022-09-09T14:08:02;3.58;;;0.73;;
7703;SDS011;3894;49.700;10.770;2022-09-09T14:10:29;1.30;;;0.50;;
7703;SDS011;3894;49.700;10.770;2022-09-09T14:13:02;2.58;;;0.50;;
7703;SDS011;3894;49.700;10.770;2022-09-09T14:15:28;2.65;;;0.70;;
7703;SDS011;3894;49.700;10.770;2022-09-09T14:17:54;1.38;;;0.60;;
7703;SDS011;3894;49.700;10.770;2022-09-09T14:20:20;3.60;;;0.82;;
7703;SDS011;3894;49.700;10.770;2022-09-09T14:22:46;2.55;;;0.73;;
7703;SDS011;3894;49.700;10.770;2022-09-09T14:25:12;4.20;;;0.75;;
7703;SDS011;3894;49.700;10.770;2022-09-09T14:27:41;4.00;;;0.80;;
7703;SDS011;3894;49.700;10.770;2022-09-09T14:30:07;1.83;;;0.52;;
7703;SDS011;3894;49.700;10.770;2022-09-09T14:32:33;2.72;;;0.50;;
7703;SDS011;3894;49.700;10.770;2022-09-09T14:34:59;2.17;;;0.60;;
7703;SDS011;3894;49.700;10.770;2022-09-09T14:37:25;2.17;;;0.52;;
7703;SDS011;3894;49.700;10.770;2022-09-09T14:39:52;2.72;;;0.65;;
7703;SDS011;3894;49.700;10.770;2022-09-09T14:42:21;2.83;;;1.02;;
7703;SDS011;3894;49.700;10.770;2022-09-09T14:44:47;3.75;;;1.10;;
7703;SDS011;3894;49.700;10.770;2022-09-09T14:47:12;2.00;;;0.93;;
7703;SDS011;3894;49.700;10.770;2022-09-09T14:49:38;1.90;;;0.60;;
7703;SDS011;3894;49.700;10.770;2022-09-09T14:52:10;2.15;;;0.60;;
7703;SDS011;3894;49.700;10.770;2022-09-09T14:54:36;2.97;;;0.60;;
7703;SDS011;3894;49.700;10.770;2022-09-09T14:57:02;1.67;;;0.60;;
7703;SDS011;3894;49.700;10.770;2022-09-09T14:59:28;2.13;;;0.70;;
7703;SDS011;3894;49.700;10.770;2022-09-09T15:01:59;0.98;;;0.47;;
7703;SDS011;3894;49.700;10.770;2022-09-09T15:04:29;2.75;;;0.70;;
7703;SDS011;3894;49.700;10.770;2022-09-09T15:06:54;1.52;;;0.80;;
7703;SDS011;3894;49.700;10.770;2022-09-09T15:09:20;2.55;;;0.70;;
7703;SDS011;3894;49.700;10.770;2022-09-09T15:11:46;2.47;;;0.60;;
7703;SDS011;3894;49.700;10.770;2022-09-09T15:14:11;3.60;;;0.73;;
7703;SDS011;3894;49.700;10.770;2022-09-09T15:16:40;2.45;;;0.60;;
7703;SDS011;3894;49.700;10.770;2022-09-09T15:19:06;2.38;;;0.60;;
7703;SDS011;3894;49.700;10.770;2022-09-09T15:21:33;3.03;;;0.68;;
7703;SDS011;3894;49.700;10.770;2022-09-09T15:24:00;4.00;;;0.93;;
7703;SDS011;3894;49.700;10.770;2022-09-09T15:26:42;2.67;;;0.98;;
7703;SDS011;3894;49.700;10.770;2022-09-09T15:29:08;3.53;;;0.90;;
7703;SDS011;3894;49.700;10.770;2022-09-09T15:31:34;1.90;;;0.70;;
7703;SDS011;3894;49.700;10.770;2022-09-09T15:34:01;2.30;;;0.75;;
7703;SDS011;3894;49.700;10.770;2022-09-09T15:36:34;2.10;;;0.50;;
7703;SDS011;3894;49.700;10.770;2022-09-09T15:39:05;2.63;;;0.70;;
7703;SDS011;3894;49.700;10.770;2022-09-09T15:41:32;1.48;;;0.70;;
7703;SDS011;3894;49.700;10.770;2022-09-09T15:43:58;2.65;;;1.08;;
7703;SDS011;3894;49.700;10.770;2022-09-09T15:46:41;2.95;;;0.65;;
7703;SDS011;3894;49.700;10.770;2022-09-09T15:49:23;3.35;;;0.90;;
7703;SDS011;3894;49.700;10.770;2022-09-09T15:51:51;3.10;;;0.85;;
7703;SDS011;3894;49.700;10.770;2022-09-09T15:54:23;1.23;;;0.73;;
7703;SDS011;3894;49.700;10.770;2022-09-09T15:56:57;2.50;;;0.52;;
7703;SDS011;3894;49.700;10.770;2022-09-09T15:59:28;2.20;;;0.80;;
7703;SDS011;3894;49.700;10.770;2022-09-09T16:01:54;2.72;;;0.75;;
7703;SDS011;3894;49.700;10.770;2022-09-09T16:04:20;2.83;;;0.80;;
7703;SDS011;3894;49.700;10.770;2022-09-09T16:06:51;3.30;;;1.08;;
7703;SDS011;3894;49.700;10.770;2022-09-09T16:09:18;4.25;;;1.60;;
7703;SDS011;3894;49.700;10.770;2022-09-09T16:11:44;5.72;;;1.50;;
7703;SDS011;3894;49.700;10.770;2022-09-09T16:14:11;4.50;;;1.50;;
7703;SDS011;3894;49.700;10.770;2022-09-09T16:16:37;4.35;;;2.65;;
7703;SDS011;3894;49.700;10.770;2022-09-09T16:19:06;6.13;;;2.38;;
7703;SDS011;3894;49.700;10.770;2022-09-09T16:21:44;8.07;;;3.75;;
7703;SDS011;3894;49.700;10.770;2022-09-09T16:24:12;13.52;;;8.18;;
7703;SDS011;3894;49.700;10.770;2022-09-09T16:26:41;19.25;;;11.10;;
7703;SDS011;3894;49.700;10.770;2022-09-09T16:31:37;8.52;;;3.40;;
7703;SDS011;3894;49.700;10.770;2022-09-09T16:34:04;4.53;;;1.90;;
7703;SDS011;3894;49.700;10.770;2022-09-09T16:36:31;4.53;;;1.80;;
7703;SDS011;3894;49.700;10.770;2022-09-09T16:38:59;7.57;;;2.72;;
7703;SDS011;3894;49.700;10.770;2022-09-09T16:41:30;7.03;;;3.30;;
7703;SDS011;3894;49.700;10.770;2022-09-09T16:43:58;6.57;;;2.70;;
7703;SDS011;3894;49.700;10.770;2022-09-09T16:46:28;7.47;;;2.97;;
7703;SDS011;3894;49.700;10.770;2022-09-09T16:48:58;6.68;;;2.75;;
7703;SDS011;3894;49.700;10.770;2022-09-09T16:51:29;6.80;;;2.33;;
7703;SDS011;3894;49.700;10.770;2022-09-09T16:54:00;3.72;;;1.20;;
7703;SDS011;3894;49.700;10.770;2022-09-09T16:56:27;3.17;;;1.00;;
7703;SDS011;3894;49.700;10.770;2022-09-09T16:58:56;3.88;;;1.30;;
7703;SDS011;3894;49.700;10.770;2022-09-09T17:01:30;3.03;;;0.82;;
7703;SDS011;3894;49.700;10.770;2022-09-09T17:04:07;3.85;;;1.20;;
7703;SDS011;3894;49.700;10.770;2022-09-09T17:06:34;3.60;;;0.90;;
7703;SDS011;3894;49.700;10.770;2022-09-09T17:09:03;1.63;;;0.43;;
7703;SDS011;3894;49.700;10.770;2022-09-09T17:11:34;2.70;;;0.75;;
7703;SDS011;3894;49.700;10.770;2022-09-09T17:14:01;3.90;;;1.23;;
7703;SDS011;3894;49.700;10.770;2022-09-09T17:16:29;3.83;;;1.42;;
7703;SDS011;3894;49.700;10.770;2022-09-09T17:18:56;1.65;;;0.60;;
7703;SDS011;3894;49.700;10.770;2022-09-09T17:21:24;4.18;;;2.20;;
7703;SDS011;3894;49.700;10.770;2022-09-09T17:23:51;3.33;;;1.38;;
7703;SDS011;3894;49.700;10.770;2022-09-09T17:26:24;3.05;;;0.98;;
7703;SDS011;3894;49.700;10.770;2022-09-09T17:28:55;2.95;;;1.08;;
7703;SDS011;3894;49.700;10.770;2022-09-09T17:31:22;3.28;;;1.10;;
7703;SDS011;3894;49.700;10.770;2022-09-09T17:33:50;1.67;;;1.10;;
7703;SDS011;3894;49.700;10.770;2022-09-09T17:36:28;4.13;;;1.23;;
7703;SDS011;3894;49.700;10.770;2022-09-09T17:38:55;2.17;;;1.52;;
7703;SDS011;3894;49.700;10.770;2022-09-09T17:41:26;2.90;;;1.75;;
7703;SDS011;3894;49.700;10.770;2022-09-09T17:43:54;3.42;;;1.40;;
7703;SDS011;3894;49.700;10.770;2022-09-09T17:46:27;4.00;;;0.90;;
7703;SDS011;3894;49.700;10.770;2022-09-09T17:51:23;2.03;;;0.60;;
7703;SDS011;3894;49.700;10.770;2022-09-09T17:53:56;1.20;;;0.55;;
7703;SDS011;3894;49.700;10.770;2022-09-09T17:56:24;2.88;;;0.80;;
7703;SDS011;3894;49.700;10.770;2022-09-09T17:58:53;1.10;;;0.50;;
7703;SDS011;3894;49.700;10.770;2022-09-09T18:01:26;3.17;;;0.63;;
7703;SDS011;3894;49.700;10.770;2022-09-09T18:03:54;1.55;;;0.45;;
7703;SDS011;3894;49.700;10.770;2022-09-09T18:06:22;2.42;;;0.60;;
7703;SDS011;3894;49.700;10.770;2022-09-09T18:08:55;2.80;;;0.68;;
7703;SDS011;3894;49.700;10.770;2022-09-09T18:11:23;1.38;;;0.50;;
7703;SDS011;3894;49.700;10.770;2022-09-09T18:13:51;4.32;;;0.60;;
7703;SDS011;3894;49.700;10.770;2022-09-09T18:16:20;1.02;;;0.50;;
7703;SDS011;3894;49.700;10.770;2022-09-09T18:18:47;1.15;;;0.60;;
7703;SDS011;3894;49.700;10.770;2022-09-09T18:21:16;0.98;;;0.40;;
7703;SDS011;3894;49.700;10.770;2022-09-09T18:23:44;1.48;;;0.40;;
7703;SDS011;3894;49.700;10.770;2022-09-09T18:26:17;1.13;;;0.60;;
7703;SDS011;3894;49.700;10.770;2022-09-09T18:28:49;4.00;;;0.60;;